EKAH

Aarhus Airport

Aarhus, Denmark
TAF EKAH 212323Z 2200/2224 25015KT 9999 SCT020 TEMPO 2200/2209 24015G25KT SHRA SCT020CB TEMPO 2209/2218 26018G30KT 4000 SHRA BKN012 SCT020CB TEMPO 2218/2224 26015G25KT SHRA SCT020CB
Issued Valid From Valid To
Sep-21 @ 23:23 UTC
(4 hours ago)
Sep-22 @ 00:00 UTC
(4 hours ago)
Sep-23 @ 00:00 UTC
(in 20 hours)
to
to
to
to
TAF EKAH 212323Z 2200/2224 25015KT 9999 SCT020 TEMPO 2200/2209 24015G25KT SHRA SCT020CB TEMPO 2209/2218 26018G30KT 4000 SHRA BKN012 SCT020CB TEMPO 2218/2224 26015G25KT SHRA SCT020CB
Issued Sep-21 @ 23:23 UTC
(4 hours ago)
Valid From Sep-22 @ 00:00 UTC
(4 hours ago)
Valid To Sep-23 @ 00:00 UTC
(in 20 hours)
-
-
-
-